createdAt,value
2023-09-27T00:00:03.334Z,82.40
2023-09-27T00:01:03.451Z,82.40
2023-09-27T00:02:03.621Z,82.36
2023-09-27T00:03:03.684Z,82.33
2023-09-27T00:04:03.788Z,82.34
2023-09-27T00:05:04.099Z,82.33
2023-09-27T00:06:04.135Z,82.38
2023-09-27T00:07:04.193Z,82.35
2023-09-27T00:08:04.357Z,82.29
2023-09-27T00:09:04.405Z,82.23
2023-09-27T00:10:04.549Z,82.17
2023-09-27T00:11:04.826Z,82.13
2023-09-27T00:12:04.805Z,82.05
2023-09-27T00:13:04.928Z,82.05
2023-09-27T00:14:05.038Z,82.04
2023-09-27T00:15:05.185Z,81.95
2023-09-27T00:16:05.346Z,81.93
2023-09-27T00:17:05.467Z,81.98
2023-09-27T00:18:05.632Z,81.91
2023-09-27T00:19:05.710Z,81.92
2023-09-27T00:20:05.802Z,81.80
2023-09-27T00:21:05.870Z,81.84
2023-09-27T00:22:05.968Z,81.75
2023-09-27T00:23:06.134Z,81.86
2023-09-27T00:24:06.204Z,81.89
2023-09-27T00:25:06.320Z,82.04
2023-09-27T00:26:06.450Z,82.34
2023-09-27T00:27:06.554Z,82.59
2023-09-27T00:28:06.650Z,82.62
2023-09-27T00:29:06.819Z,82.65
2023-09-27T00:30:06.886Z,82.71
2023-09-27T00:31:07.005Z,82.74
2023-09-27T00:32:07.171Z,82.71
2023-09-27T00:33:07.254Z,82.60
2023-09-27T00:34:07.395Z,82.56
2023-09-27T00:35:08.243Z,82.49
2023-09-27T00:36:07.700Z,82.37
2023-09-27T00:37:07.767Z,82.25
2023-09-27T00:38:07.911Z,82.15
2023-09-27T00:39:08.005Z,82.02
2023-09-27T00:40:08.154Z,81.98
2023-09-27T00:41:08.411Z,81.91
2023-09-27T00:42:08.378Z,81.87
2023-09-27T00:43:08.468Z,81.86
2023-09-27T00:44:08.627Z,81.89
2023-09-27T00:45:08.733Z,81.89
2023-09-27T00:46:08.884Z,81.95
2023-09-27T00:47:09.058Z,82.06
2023-09-27T00:48:09.156Z,82.13
2023-09-27T00:49:09.229Z,82.19
2023-09-27T00:50:09.349Z,82.16
2023-09-27T00:51:09.444Z,82.19
2023-09-27T00:52:09.610Z,82.19
2023-09-27T00:53:09.700Z,82.16
2023-09-27T00:54:09.766Z,82.12
2023-09-27T00:55:09.872Z,82.14
2023-09-27T00:56:10.286Z,82.30
2023-09-27T00:57:10.095Z,82.45
2023-09-27T00:58:10.217Z,82.63
2023-09-27T00:59:10.354Z,82.77
2023-09-27T01:00:10.516Z,82.78
2023-09-27T01:01:10.664Z,82.74
2023-09-27T01:02:10.860Z,82.67
2023-09-27T01:03:10.927Z,82.62
2023-09-27T01:04:10.963Z,82.55
2023-09-27T01:05:11.419Z,82.51
2023-09-27T01:06:11.259Z,82.45
2023-09-27T01:07:11.397Z,82.40
2023-09-27T01:08:11.496Z,82.35
2023-09-27T01:09:11.583Z,82.31
2023-09-27T01:10:11.742Z,82.34
2023-09-27T01:11:11.885Z,82.42
2023-09-27T01:12:11.944Z,82.52
2023-09-27T01:13:12.177Z,82.56
2023-09-27T01:14:12.226Z,82.54
2023-09-27T01:15:12.339Z,82.58
2023-09-27T01:16:12.499Z,82.61
2023-09-27T01:17:12.950Z,82.63
2023-09-27T01:18:12.835Z,82.58
2023-09-27T01:19:12.853Z,82.48
2023-09-27T01:20:13.055Z,82.37
2023-09-27T01:21:13.196Z,82.24
2023-09-27T01:22:13.280Z,82.26
2023-09-27T01:23:13.430Z,82.24
2023-09-27T01:24:13.536Z,82.38
2023-09-27T01:25:13.658Z,82.72
2023-09-27T01:26:13.853Z,82.94
2023-09-27T01:27:13.874Z,83.06
2023-09-27T01:28:13.976Z,82.95
2023-09-27T01:29:14.117Z,82.92
2023-09-27T01:30:14.234Z,82.84
2023-09-27T01:31:14.400Z,82.80
2023-09-27T01:32:14.509Z,82.77
2023-09-27T01:33:14.612Z,82.73
2023-09-27T01:34:14.702Z,82.78
2023-09-27T01:35:14.836Z,82.86
2023-09-27T01:36:14.908Z,82.89
2023-09-27T01:37:15.033Z,82.86
2023-09-27T01:38:15.168Z,82.85
2023-09-27T01:39:15.235Z,82.80
2023-09-27T01:40:15.396Z,82.80
2023-09-27T01:41:15.536Z,82.72
2023-09-27T01:42:15.583Z,82.74
2023-09-27T01:43:15.748Z,82.70
2023-09-27T01:44:15.908Z,82.65
2023-09-27T01:45:15.964Z,82.63
2023-09-27T01:46:16.127Z,82.55
2023-09-27T01:47:16.287Z,82.49
2023-09-27T01:48:16.395Z,82.39
2023-09-27T01:49:16.482Z,82.30
2023-09-27T01:50:16.700Z,82.35
2023-09-27T01:51:16.718Z,82.46
2023-09-27T01:52:16.871Z,82.74
2023-09-27T01:53:17.043Z,82.91
2023-09-27T01:54:17.195Z,83.05
2023-09-27T01:55:17.274Z,83.21
2023-09-27T01:56:17.422Z,83.30
2023-09-27T01:57:17.493Z,83.40
2023-09-27T01:58:17.619Z,83.46
2023-09-27T01:59:17.743Z,83.51
2023-09-27T02:00:17.846Z,83.58
2023-09-27T02:01:17.980Z,83.63
2023-09-27T02:02:18.122Z,83.65
2023-09-27T02:03:18.254Z,83.72
2023-09-27T02:04:18.288Z,83.73
2023-09-27T02:05:18.513Z,83.73
2023-09-27T02:06:18.515Z,83.76
2023-09-27T02:07:18.621Z,83.76
2023-09-27T02:08:18.880Z,83.73
2023-09-27T02:09:18.895Z,83.70
2023-09-27T02:10:19.008Z,83.63
2023-09-27T02:11:19.185Z,83.52
2023-09-27T02:12:19.253Z,83.46
2023-09-27T02:13:19.382Z,83.42
2023-09-27T02:14:19.502Z,83.37
2023-09-27T02:15:19.631Z,83.31
2023-09-27T02:16:19.767Z,83.22
2023-09-27T02:17:19.846Z,83.10
2023-09-27T02:18:20.048Z,82.90
2023-09-27T02:19:20.126Z,82.69
2023-09-27T02:20:20.434Z,82.55
2023-09-27T02:21:20.406Z,82.38
2023-09-27T02:22:20.519Z,82.19
2023-09-27T02:23:20.690Z,81.90
2023-09-27T02:24:20.752Z,81.67
2023-09-27T02:25:20.856Z,81.43
2023-09-27T02:26:21.069Z,81.19
2023-09-27T02:27:21.079Z,81.09
2023-09-27T02:28:21.181Z,80.93
2023-09-27T02:29:21.345Z,80.74
2023-09-27T02:30:21.458Z,80.66
2023-09-27T02:31:21.595Z,80.57
2023-09-27T02:32:21.721Z,80.44
2023-09-27T02:33:21.828Z,80.31
2023-09-27T02:34:21.928Z,80.22
2023-09-27T02:35:22.043Z,80.06
2023-09-27T02:36:22.122Z,80.06
2023-09-27T02:37:22.238Z,79.91
2023-09-27T02:38:22.399Z,79.87
2023-09-27T02:39:22.466Z,79.88
2023-09-27T02:40:22.590Z,79.83
2023-09-27T02:41:22.696Z,79.78
2023-09-27T02:42:22.791Z,79.76
2023-09-27T02:43:22.922Z,79.71
2023-09-27T02:44:23.053Z,79.71
2023-09-27T02:45:23.174Z,79.69
2023-09-27T02:46:23.279Z,79.66
2023-09-27T02:47:23.462Z,79.73
2023-09-27T02:48:23.650Z,79.82
2023-09-27T02:49:23.724Z,79.86
2023-09-27T02:50:23.836Z,79.90
2023-09-27T02:51:23.965Z,79.98
2023-09-27T02:52:24.036Z,80.06
2023-09-27T02:53:24.200Z,80.06
2023-09-27T02:54:24.335Z,80.05
2023-09-27T02:55:24.505Z,80.03
2023-09-27T02:56:25.729Z,80.03
2023-09-27T02:57:24.738Z,80.01
2023-09-27T02:58:24.874Z,79.98
2023-09-27T02:59:25.012Z,80.00
2023-09-27T03:00:25.123Z,80.02
2023-09-27T03:01:25.246Z,79.99
2023-09-27T03:02:25.408Z,80.02
2023-09-27T03:03:25.554Z,79.97
2023-09-27T03:04:25.568Z,80.00
2023-09-27T03:05:25.776Z,80.07
2023-09-27T03:06:25.846Z,80.11
2023-09-27T03:07:25.946Z,80.18
2023-09-27T03:08:26.069Z,80.26
2023-09-27T03:09:26.189Z,80.25
2023-09-27T03:10:26.364Z,80.25
2023-09-27T03:11:26.468Z,80.26
2023-09-27T03:12:26.532Z,80.26
2023-09-27T03:13:26.641Z,80.28
2023-09-27T03:14:26.784Z,80.28
2023-09-27T03:15:26.888Z,80.25
2023-09-27T03:16:26.974Z,80.27
2023-09-27T03:17:27.140Z,80.24
2023-09-27T03:18:27.288Z,80.27
2023-09-27T03:19:27.330Z,80.28
2023-09-27T03:20:27.457Z,80.33
2023-09-27T03:21:27.571Z,80.38
2023-09-27T03:22:27.694Z,80.39
2023-09-27T03:23:27.823Z,80.46
2023-09-27T03:24:27.948Z,80.46
2023-09-27T03:25:28.083Z,80.46
2023-09-27T03:26:28.211Z,80.41
2023-09-27T03:27:28.292Z,80.43
2023-09-27T03:28:28.467Z,80.42
2023-09-27T03:29:28.591Z,80.42
2023-09-27T03:30:28.696Z,80.41
2023-09-27T03:31:28.844Z,80.41
2023-09-27T03:32:28.991Z,80.41
2023-09-27T03:33:29.080Z,80.40
2023-09-27T03:34:29.166Z,80.40
2023-09-27T03:35:29.334Z,80.42
2023-09-27T03:36:29.449Z,80.49
2023-09-27T03:37:29.567Z,80.39
2023-09-27T03:38:29.745Z,80.48
2023-09-27T03:39:30.052Z,80.53
2023-09-27T03:40:29.947Z,80.46
2023-09-27T03:41:30.082Z,80.49
2023-09-27T03:42:30.234Z,80.40
2023-09-27T03:43:30.298Z,80.41
2023-09-27T03:44:30.438Z,80.40
2023-09-27T03:45:30.529Z,80.69
2023-09-27T03:46:30.706Z,81.09
2023-09-27T03:47:31.001Z,81.30
2023-09-27T03:48:30.939Z,81.43
2023-09-27T03:49:30.970Z,81.50
2023-09-27T03:50:31.160Z,81.54
2023-09-27T03:51:31.232Z,81.60
2023-09-27T03:52:31.328Z,81.68
2023-09-27T03:53:31.522Z,81.73
2023-09-27T03:54:31.557Z,81.79
2023-09-27T03:55:31.709Z,81.81
2023-09-27T03:56:31.853Z,81.79
2023-09-27T03:57:31.942Z,81.77
2023-09-27T03:58:32.084Z,81.71
2023-09-27T03:59:32.233Z,81.76
2023-09-27T04:00:32.364Z,81.61
2023-09-27T04:01:32.507Z,81.73
2023-09-27T04:02:32.656Z,81.61
2023-09-27T04:03:32.836Z,81.52
2023-09-27T04:04:32.933Z,81.47
2023-09-27T04:05:33.102Z,81.63
2023-09-27T04:06:33.169Z,81.75
2023-09-27T04:07:33.274Z,81.86
2023-09-27T04:08:33.461Z,81.99
2023-09-27T04:09:33.524Z,81.86
2023-09-27T04:10:33.630Z,81.77
2023-09-27T04:11:33.802Z,81.81
2023-09-27T04:12:33.908Z,82.00
2023-09-27T04:13:34.056Z,82.20
2023-09-27T04:14:34.191Z,82.33
2023-09-27T04:15:34.253Z,82.43
2023-09-27T04:16:34.364Z,82.39
2023-09-27T04:17:34.574Z,82.26
2023-09-27T04:18:34.624Z,82.25
2023-09-27T04:19:34.741Z,82.12
2023-09-27T04:20:36.294Z,82.15
2023-09-27T04:21:35.038Z,82.52
2023-09-27T04:22:35.168Z,83.06
2023-09-27T04:23:35.342Z,83.34
2023-09-27T04:24:35.358Z,83.55
2023-09-27T04:25:35.454Z,83.66
2023-09-27T04:26:35.585Z,83.70
2023-09-27T04:27:35.666Z,83.65
2023-09-27T04:28:35.787Z,83.58
2023-09-27T04:29:35.968Z,83.55
2023-09-27T04:30:36.024Z,83.49
2023-09-27T04:31:36.194Z,83.44
2023-09-27T04:32:36.300Z,83.42
2023-09-27T04:33:36.363Z,83.45
2023-09-27T04:34:36.507Z,83.43
2023-09-27T04:35:36.657Z,83.45
2023-09-27T04:36:36.739Z,83.42
2023-09-27T04:37:36.840Z,83.42
2023-09-27T04:38:36.973Z,83.43
2023-09-27T04:39:37.058Z,83.46
2023-09-27T04:40:37.188Z,83.46
2023-09-27T04:41:37.353Z,83.46
2023-09-27T04:42:37.434Z,83.44
2023-09-27T04:43:37.605Z,83.35
2023-09-27T04:44:37.701Z,83.41
2023-09-27T04:45:37.791Z,83.38
2023-09-27T04:46:37.891Z,83.40
2023-09-27T04:47:38.189Z,83.38
2023-09-27T04:48:38.144Z,83.33
2023-09-27T04:49:38.264Z,83.21
2023-09-27T04:50:38.428Z,83.23
2023-09-27T04:51:38.532Z,83.42
2023-09-27T04:52:38.633Z,83.68
2023-09-27T04:53:39.317Z,83.81
2023-09-27T04:54:38.917Z,83.90
2023-09-27T04:55:39.028Z,83.93
2023-09-27T04:56:39.193Z,83.88
2023-09-27T04:57:39.284Z,83.84
2023-09-27T04:58:39.864Z,83.73
2023-09-27T04:59:39.568Z,83.66
2023-09-27T05:00:39.676Z,83.57
2023-09-27T05:01:39.823Z,83.46
2023-09-27T05:02:39.957Z,83.42
2023-09-27T05:03:40.153Z,83.60
2023-09-27T05:04:40.113Z,83.80
2023-09-27T05:05:40.322Z,84.01
2023-09-27T05:06:40.354Z,84.11
2023-09-27T05:07:40.537Z,84.15
2023-09-27T05:08:40.711Z,84.20
2023-09-27T05:09:40.724Z,84.18
2023-09-27T05:10:40.891Z,84.20
2023-09-27T05:11:41.073Z,84.22
2023-09-27T05:12:41.287Z,84.23
2023-09-27T05:13:41.245Z,84.29
2023-09-27T05:14:41.398Z,84.30
2023-09-27T05:15:41.562Z,84.34
2023-09-27T05:16:41.653Z,84.41
2023-09-27T05:17:41.816Z,84.43
2023-09-27T05:18:41.959Z,84.39
2023-09-27T05:19:42.056Z,84.30
2023-09-27T05:20:42.165Z,84.25
2023-09-27T05:21:43.494Z,84.18
2023-09-27T05:22:42.546Z,84.11
2023-09-27T05:23:42.574Z,83.97
2023-09-27T05:24:42.632Z,83.94
2023-09-27T05:25:42.751Z,84.05
2023-09-27T05:26:42.862Z,84.11
2023-09-27T05:27:42.985Z,84.09
2023-09-27T05:28:43.122Z,84.09
2023-09-27T05:29:43.233Z,84.03
2023-09-27T05:30:43.346Z,83.98
2023-09-27T05:31:43.434Z,84.01
2023-09-27T05:32:43.652Z,84.05
2023-09-27T05:33:43.918Z,84.10
2023-09-27T05:34:43.774Z,84.13
2023-09-27T05:35:43.916Z,84.16
2023-09-27T05:36:44.029Z,84.20
2023-09-27T05:37:44.159Z,84.18
2023-09-27T05:38:44.312Z,84.18
2023-09-27T05:39:44.378Z,84.19
2023-09-27T05:40:44.505Z,84.18
2023-09-27T05:41:44.615Z,84.18
2023-09-27T05:42:44.720Z,84.16
2023-09-27T05:43:44.837Z,84.12
2023-09-27T05:44:44.986Z,84.03
2023-09-27T05:45:45.207Z,83.97
2023-09-27T05:46:45.437Z,83.90
2023-09-27T05:47:45.443Z,83.86
2023-09-27T05:48:45.478Z,83.81
2023-09-27T05:49:45.595Z,83.75
2023-09-27T05:50:45.936Z,83.67
2023-09-27T05:51:45.846Z,83.68
2023-09-27T05:52:45.960Z,83.66
2023-09-27T05:53:46.087Z,83.64
2023-09-27T05:54:46.244Z,83.63
2023-09-27T05:55:46.363Z,83.63
2023-09-27T05:56:46.508Z,83.63
2023-09-27T05:57:46.641Z,83.66
2023-09-27T05:58:46.699Z,83.66
2023-09-27T05:59:46.843Z,83.64
2023-09-27T06:00:47.029Z,83.66
2023-09-27T06:01:47.105Z,83.64
2023-09-27T06:02:47.270Z,83.56
2023-09-27T06:03:47.451Z,83.48
2023-09-27T06:04:47.428Z,83.42
2023-09-27T06:05:47.622Z,83.48
2023-09-27T06:06:47.668Z,83.41
2023-09-27T06:07:47.820Z,83.29
2023-09-27T06:08:47.925Z,83.20
2023-09-27T06:09:48.086Z,83.17
2023-09-27T06:10:48.185Z,83.14
2023-09-27T06:11:48.297Z,83.12
2023-09-27T06:12:48.404Z,83.09
2023-09-27T06:13:48.550Z,83.13
2023-09-27T06:14:48.675Z,83.14
2023-09-27T06:15:48.868Z,83.17
2023-09-27T06:16:48.956Z,83.17
2023-09-27T06:17:49.072Z,83.19
2023-09-27T06:18:49.168Z,83.22
2023-09-27T06:19:49.267Z,83.26
2023-09-27T06:20:49.403Z,83.28
2023-09-27T06:21:49.508Z,83.32
2023-09-27T06:22:49.692Z,83.28
2023-09-27T06:23:49.732Z,83.18
2023-09-27T06:24:49.843Z,83.14
2023-09-27T06:25:50.034Z,83.00
2023-09-27T06:26:50.159Z,82.85
2023-09-27T06:27:50.256Z,82.72
2023-09-27T06:28:50.530Z,82.67
2023-09-27T06:29:50.476Z,82.68
2023-09-27T06:30:50.694Z,82.61
2023-09-27T06:31:50.763Z,82.80
2023-09-27T06:32:50.941Z,82.72
2023-09-27T06:33:50.960Z,82.63
2023-09-27T06:34:51.072Z,82.45
2023-09-27T06:35:51.181Z,82.26
2023-09-27T06:36:51.281Z,82.16
2023-09-27T06:37:51.382Z,82.05
2023-09-27T06:38:52.199Z,82.02
2023-09-27T06:39:51.651Z,82.00
2023-09-27T06:40:51.746Z,81.94
2023-09-27T06:41:51.857Z,82.05
2023-09-27T06:42:52.137Z,82.06
2023-09-27T06:43:52.101Z,82.02
2023-09-27T06:44:52.222Z,82.03
2023-09-27T06:45:52.373Z,81.96
2023-09-27T06:46:52.470Z,81.86
2023-09-27T06:47:52.690Z,81.62
2023-09-27T06:48:52.961Z,81.76
2023-09-27T06:49:52.750Z,81.81
2023-09-27T06:50:52.864Z,81.64
2023-09-27T06:51:53.016Z,81.33
2023-09-27T06:52:59.924Z,81.22
2023-09-27T06:53:54.263Z,81.22
2023-09-27T06:54:53.342Z,81.29
2023-09-27T06:55:53.475Z,81.21
2023-09-27T06:56:53.620Z,81.19
2023-09-27T06:57:53.675Z,80.86
2023-09-27T06:58:53.950Z,80.84
2023-09-27T06:59:53.899Z,79.90
2023-09-27T07:00:54.087Z,79.95
2023-09-27T07:01:54.135Z,79.51
2023-09-27T07:02:54.432Z,78.48
2023-09-27T07:03:54.399Z,77.97
2023-09-27T07:04:54.505Z,78.10
2023-09-27T07:05:54.615Z,78.09
2023-09-27T07:06:54.738Z,78.12
2023-09-27T07:07:54.856Z,78.47
2023-09-27T07:08:54.980Z,78.89
2023-09-27T07:09:55.134Z,79.35
2023-09-27T07:10:55.208Z,79.74
2023-09-27T07:11:55.297Z,79.65
2023-09-27T07:12:55.414Z,80.00
2023-09-27T07:13:55.599Z,80.50
2023-09-27T07:14:55.666Z,80.36
2023-09-27T07:15:55.805Z,80.30
2023-09-27T07:17:01.620Z,80.68
2023-09-27T07:17:57.123Z,80.00
2023-09-27T07:18:56.424Z,79.57
2023-09-27T07:19:56.953Z,79.96
2023-09-27T07:20:56.355Z,79.53
2023-09-27T07:21:56.484Z,79.21
2023-09-27T07:22:56.593Z,79.25
2023-09-27T07:23:56.701Z,79.29
2023-09-27T07:24:56.854Z,79.79
2023-09-27T07:25:56.964Z,80.08
2023-09-27T07:26:57.056Z,80.22
2023-09-27T07:27:57.167Z,79.69
2023-09-27T07:28:57.265Z,78.95
2023-09-27T07:29:57.429Z,79.03
2023-09-27T07:30:57.556Z,78.61
2023-09-27T07:31:57.675Z,78.23
2023-09-27T07:32:57.873Z,78.60
2023-09-27T07:33:57.882Z,78.90
2023-09-27T07:34:57.994Z,79.32
2023-09-27T07:35:58.118Z,79.50
2023-09-27T07:36:58.215Z,79.95
2023-09-27T07:37:58.354Z,80.03
2023-09-27T07:38:58.499Z,79.84
2023-09-27T07:39:58.609Z,80.04
2023-09-27T07:40:58.751Z,79.94
2023-09-27T07:41:58.881Z,80.31
2023-09-27T07:42:58.981Z,80.01
2023-09-27T07:43:59.302Z,79.87
2023-09-27T07:44:59.216Z,79.25
2023-09-27T07:45:59.375Z,78.72
2023-09-27T07:46:59.476Z,78.33
2023-09-27T07:47:59.698Z,78.08
2023-09-27T07:48:59.774Z,78.23
2023-09-27T07:49:59.861Z,78.42
2023-09-27T07:50:59.969Z,78.43
2023-09-27T07:52:00.078Z,77.87
2023-09-27T07:53:00.234Z,77.77
2023-09-27T07:54:00.408Z,78.29
2023-09-27T07:55:00.476Z,78.29
2023-09-27T07:56:00.559Z,76.85
2023-09-27T07:57:00.664Z,75.87
2023-09-27T07:58:00.766Z,74.93
2023-09-27T07:59:00.908Z,75.35
2023-09-27T08:00:01.019Z,74.74
2023-09-27T08:01:01.174Z,76.37
2023-09-27T08:02:01.234Z,74.54
2023-09-27T08:03:01.491Z,74.67
2023-09-27T08:04:01.585Z,73.21
2023-09-27T08:05:01.626Z,71.64
2023-09-27T08:06:01.720Z,71.06
2023-09-27T08:07:01.840Z,70.91
2023-09-27T08:08:01.935Z,71.05
2023-09-27T08:09:02.087Z,71.56
2023-09-27T08:10:20.847Z,71.88
2023-09-27T08:11:03.376Z,72.14
2023-09-27T08:12:02.528Z,72.14
2023-09-27T08:13:02.562Z,72.52
2023-09-27T08:14:02.701Z,73.38
2023-09-27T08:15:02.826Z,73.74
2023-09-27T08:16:02.948Z,73.78
2023-09-27T08:17:03.127Z,73.98
2023-09-27T08:18:03.430Z,74.20
2023-09-27T08:19:03.308Z,73.68
2023-09-27T08:20:03.478Z,73.91
2023-09-27T08:21:03.553Z,73.83
2023-09-27T08:22:03.745Z,73.81
2023-09-27T08:23:03.838Z,73.42
2023-09-27T08:24:04.018Z,73.22
2023-09-27T08:25:04.080Z,72.86
2023-09-27T08:26:04.233Z,72.68
2023-09-27T08:27:04.342Z,72.63
2023-09-27T08:28:04.439Z,71.97
2023-09-27T08:29:04.594Z,71.42
2023-09-27T08:30:04.694Z,71.54
2023-09-27T08:31:04.830Z,70.96
2023-09-27T08:32:05.005Z,71.99
2023-09-27T08:33:05.092Z,70.33
2023-09-27T08:34:05.100Z,70.79
2023-09-27T08:35:05.222Z,71.15
2023-09-27T08:36:05.327Z,70.08
2023-09-27T08:37:05.450Z,72.19
2023-09-27T08:38:05.587Z,71.30
2023-09-27T08:39:05.730Z,70.99
2023-09-27T08:40:05.792Z,70.12
2023-09-27T08:41:05.971Z,70.52
2023-09-27T08:42:06.012Z,72.21
2023-09-27T08:43:06.243Z,72.84
2023-09-27T08:44:07.325Z,73.44
2023-09-27T08:45:06.404Z,72.88
2023-09-27T08:46:06.547Z,72.09
2023-09-27T08:47:06.628Z,72.82
2023-09-27T08:48:06.886Z,72.31
2023-09-27T08:49:06.858Z,73.92
2023-09-27T08:50:06.972Z,72.21
2023-09-27T08:51:07.118Z,70.44
2023-09-27T08:52:07.214Z,68.13
2023-09-27T08:53:07.321Z,68.75
2023-09-27T08:54:07.470Z,66.58
2023-09-27T08:55:07.554Z,66.97
2023-09-27T08:56:07.809Z,67.72
2023-09-27T08:57:07.776Z,68.17
2023-09-27T08:58:07.941Z,66.54
2023-09-27T08:59:08.161Z,68.00
2023-09-27T09:00:08.414Z,68.66
2023-09-27T09:01:08.314Z,67.51
2023-09-27T09:02:08.532Z,69.03
2023-09-27T09:03:08.696Z,63.92
2023-09-27T09:04:08.691Z,62.63
2023-09-27T09:05:08.760Z,62.88
2023-09-27T09:06:08.991Z,62.28
2023-09-27T09:07:09.028Z,61.10
2023-09-27T09:08:09.136Z,60.61
2023-09-27T09:09:09.301Z,60.29
2023-09-27T09:10:09.388Z,62.44
2023-09-27T09:11:09.509Z,60.57
2023-09-27T09:12:09.610Z,60.15
2023-09-27T09:13:09.732Z,60.11
2023-09-27T09:14:09.864Z,61.47
2023-09-27T09:15:09.954Z,59.09
2023-09-27T09:16:10.382Z,59.12
2023-09-27T09:17:10.226Z,58.87
2023-09-27T09:18:10.453Z,58.87
2023-09-27T09:19:10.460Z,59.32
2023-09-27T09:20:10.624Z,60.06
2023-09-27T09:21:10.669Z,60.39
2023-09-27T09:22:10.803Z,60.15
2023-09-27T09:23:10.906Z,59.51
2023-09-27T09:24:11.008Z,59.46
2023-09-27T09:25:11.144Z,60.75
2023-09-27T09:26:11.534Z,61.62
2023-09-27T09:27:13.653Z,61.28
2023-09-27T09:28:11.482Z,58.56
2023-09-27T09:29:11.730Z,57.08
2023-09-27T09:30:11.761Z,58.22
2023-09-27T09:31:11.822Z,57.98
2023-09-27T09:32:11.921Z,58.77
2023-09-27T09:33:12.254Z,56.95
2023-09-27T09:34:12.182Z,59.06
2023-09-27T09:35:12.299Z,60.37
2023-09-27T09:36:12.419Z,57.18
2023-09-27T09:37:12.538Z,55.52
2023-09-27T09:38:12.686Z,57.44
2023-09-27T09:39:12.896Z,54.98
2023-09-27T09:40:12.870Z,56.54
2023-09-27T09:41:13.025Z,55.64
2023-09-27T09:42:13.106Z,56.70
2023-09-27T09:43:13.216Z,58.40
2023-09-27T09:44:13.378Z,58.35
2023-09-27T09:45:13.723Z,56.78
2023-09-27T09:46:13.601Z,57.09
2023-09-27T09:47:13.762Z,58.05
2023-09-27T09:48:13.790Z,58.51
2023-09-27T09:49:13.898Z,58.06
2023-09-27T09:50:14.292Z,57.75
2023-09-27T09:51:14.143Z,57.89
2023-09-27T09:52:14.310Z,58.21
2023-09-27T09:53:14.428Z,58.16
2023-09-27T09:54:14.468Z,54.66
2023-09-27T09:55:26.024Z,52.97
2023-09-27T09:57:24.604Z,57.55
2023-09-27T09:58:16.020Z,52.31
2023-09-27T09:59:15.053Z,52.07
2023-09-27T10:00:15.160Z,52.31
2023-09-27T10:01:15.308Z,52.34
2023-09-27T10:02:15.446Z,51.94
2023-09-27T10:03:15.530Z,52.28
2023-09-27T10:04:15.690Z,52.44
2023-09-27T10:05:15.735Z,53.19
2023-09-27T10:06:15.825Z,55.00
2023-09-27T10:07:15.932Z,54.49
2023-09-27T10:08:16.079Z,52.07
2023-09-27T10:09:16.761Z,51.39
2023-09-27T10:10:16.380Z,52.91
2023-09-27T10:11:16.529Z,52.79
2023-09-27T10:12:16.667Z,54.60
2023-09-27T10:13:16.723Z,55.73
2023-09-27T10:14:17.191Z,55.85
2023-09-27T10:15:16.953Z,55.65
2023-09-27T10:16:17.119Z,55.41
2023-09-27T10:17:17.198Z,54.29
2023-09-27T10:18:17.425Z,56.19
2023-09-27T10:19:17.494Z,53.11
2023-09-27T10:20:17.562Z,52.70
2023-09-27T10:21:17.663Z,50.98
2023-09-27T10:22:17.826Z,51.53
2023-09-27T10:23:17.944Z,51.67
2023-09-27T10:24:18.033Z,51.65
2023-09-27T10:25:18.148Z,52.33
2023-09-27T10:26:18.292Z,52.58
2023-09-27T10:27:18.440Z,52.02
2023-09-27T10:28:18.499Z,51.96
2023-09-27T10:29:18.695Z,52.02
2023-09-27T10:30:18.751Z,53.06
2023-09-27T10:31:19.115Z,55.87
2023-09-27T10:32:19.079Z,56.54
2023-09-27T10:33:19.258Z,57.58
2023-09-27T10:34:19.245Z,57.31
2023-09-27T10:35:19.381Z,58.02
2023-09-27T10:36:19.469Z,58.25
2023-09-27T10:37:20.022Z,58.39
2023-09-27T10:38:19.731Z,58.41
2023-09-27T10:39:19.856Z,57.49
2023-09-27T10:40:19.976Z,57.91
2023-09-27T10:41:20.145Z,57.13
2023-09-27T10:42:20.295Z,56.62
2023-09-27T10:43:21.669Z,57.06
2023-09-27T10:44:20.535Z,56.82
2023-09-27T10:45:20.656Z,57.86
2023-09-27T10:46:20.818Z,56.58
2023-09-27T10:47:20.944Z,58.32
2023-09-27T10:48:21.019Z,57.20
2023-09-27T10:49:21.117Z,58.34
2023-09-27T10:50:21.251Z,58.70
2023-09-27T10:51:21.330Z,58.37
2023-09-27T10:52:21.505Z,58.94
2023-09-27T10:53:21.595Z,58.97
2023-09-27T10:54:21.689Z,57.50
2023-09-27T10:55:21.826Z,58.56
2023-09-27T10:56:21.943Z,61.13
2023-09-27T10:57:22.268Z,60.86
2023-09-27T10:58:22.146Z,61.01
2023-09-27T10:59:22.282Z,56.96
2023-09-27T11:00:22.388Z,58.34
2023-09-27T11:01:22.563Z,58.01
2023-09-27T11:02:22.647Z,56.54
2023-09-27T11:03:22.786Z,55.11
2023-09-27T11:04:22.880Z,55.94
2023-09-27T11:05:23.005Z,58.62
2023-09-27T11:06:23.102Z,56.46
2023-09-27T11:07:23.208Z,58.09
2023-09-27T11:08:23.374Z,56.16
2023-09-27T11:09:23.475Z,56.30
2023-09-27T11:10:23.602Z,56.38
2023-09-27T11:11:23.735Z,57.38
2023-09-27T11:12:23.819Z,57.92
2023-09-27T11:13:23.962Z,56.29
2023-09-27T11:14:24.100Z,59.32
2023-09-27T11:15:24.219Z,59.43
2023-09-27T11:16:24.313Z,56.86
2023-09-27T11:17:24.582Z,57.01
2023-09-27T11:18:24.611Z,55.54
2023-09-27T11:19:24.693Z,57.54
2023-09-27T11:20:25.935Z,54.78
2023-09-27T11:21:24.956Z,55.33
2023-09-27T11:22:25.067Z,54.92
2023-09-27T11:23:25.336Z,53.82
2023-09-27T11:24:25.363Z,53.46
2023-09-27T11:25:25.389Z,53.18
2023-09-27T11:26:25.590Z,53.56
2023-09-27T11:27:25.696Z,53.47
2023-09-27T11:28:25.771Z,55.03
2023-09-27T11:29:25.919Z,56.30
2023-09-27T11:30:25.973Z,54.41
2023-09-27T11:31:26.127Z,52.20
2023-09-27T11:32:26.260Z,52.83
2023-09-27T11:33:26.367Z,55.08
2023-09-27T11:34:26.512Z,53.23
2023-09-27T11:35:26.635Z,53.14
2023-09-27T11:36:26.749Z,51.96
2023-09-27T11:37:26.880Z,53.28
2023-09-27T11:38:27.065Z,54.21
2023-09-27T11:39:27.099Z,54.74
2023-09-27T11:40:27.220Z,54.09
2023-09-27T11:41:27.409Z,52.44
2023-09-27T11:42:27.444Z,53.25
2023-09-27T11:43:27.548Z,53.23
2023-09-27T11:44:27.680Z,52.34
2023-09-27T11:45:27.776Z,51.98
2023-09-27T11:46:27.899Z,54.71
2023-09-27T11:47:28.096Z,53.94
2023-09-27T11:48:28.200Z,53.09
2023-09-27T11:49:28.245Z,53.33
2023-09-27T11:50:28.366Z,52.27
2023-09-27T11:51:28.481Z,52.36
2023-09-27T11:52:28.578Z,52.50
2023-09-27T11:53:28.773Z,53.86
2023-09-27T11:54:28.820Z,51.46
2023-09-27T11:55:28.950Z,50.33
2023-09-27T11:56:29.052Z,52.03
2023-09-27T11:57:29.134Z,51.62
2023-09-27T11:58:29.276Z,50.71
2023-09-27T11:59:29.407Z,51.37
2023-09-27T12:00:29.500Z,50.93
2023-09-27T12:01:29.659Z,52.39
2023-09-27T12:02:33.006Z,52.37
2023-09-27T12:03:31.014Z,51.43
2023-09-27T12:04:30.176Z,52.55
2023-09-27T12:05:30.436Z,52.35
2023-09-27T12:06:30.413Z,51.15
2023-09-27T12:07:30.458Z,52.27
2023-09-27T12:08:30.628Z,51.52
2023-09-27T12:09:30.699Z,51.88
2023-09-27T12:10:30.824Z,52.18
2023-09-27T12:11:30.966Z,52.14
2023-09-27T12:12:31.049Z,52.52
2023-09-27T12:13:31.186Z,51.34
2023-09-27T12:14:31.400Z,51.16
2023-09-27T12:15:31.395Z,50.48
2023-09-27T12:16:31.522Z,49.42
2023-09-27T12:17:31.787Z,50.63
2023-09-27T12:18:31.849Z,50.88
2023-09-27T12:19:31.968Z,54.05
2023-09-27T12:20:40.551Z,53.82
2023-09-27T12:21:33.248Z,50.66
2023-09-27T12:22:32.287Z,50.06
2023-09-27T12:23:32.423Z,49.57
2023-09-27T12:24:32.497Z,50.18
2023-09-27T12:25:32.637Z,49.32
2023-09-27T12:26:32.791Z,51.76
2023-09-27T12:27:32.865Z,54.58
2023-09-27T12:28:32.994Z,54.10
2023-09-27T12:29:33.170Z,50.12
2023-09-27T12:30:33.292Z,52.91
2023-09-27T12:31:33.448Z,54.18
2023-09-27T12:32:33.627Z,49.06
2023-09-27T12:33:33.676Z,51.54
2023-09-27T12:34:33.761Z,48.60
2023-09-27T12:35:33.945Z,49.38
2023-09-27T12:36:33.965Z,49.08
2023-09-27T12:37:34.103Z,48.73
2023-09-27T12:38:34.403Z,49.36
2023-09-27T12:39:34.329Z,50.04
2023-09-27T12:40:34.466Z,49.96
2023-09-27T12:41:34.658Z,51.52
2023-09-27T12:42:34.706Z,50.24
2023-09-27T12:43:34.863Z,49.78
2023-09-27T12:44:34.983Z,48.89
2023-09-27T12:45:35.038Z,49.64
2023-09-27T12:46:35.167Z,49.80
2023-09-27T12:47:35.311Z,49.10
2023-09-27T12:48:35.575Z,47.31
2023-09-27T12:49:35.510Z,49.83
2023-09-27T12:50:35.688Z,51.45
2023-09-27T12:51:47.013Z,48.72
2023-09-27T12:52:36.871Z,52.35
2023-09-27T12:53:36.024Z,48.63
2023-09-27T12:54:36.091Z,50.04